Nearby METAR Reports

 

KSJC - San Jose, California, USA
Distance from station: NE 9mi, 14km
Updated: Sat, Jan-20-2018 5:53am CST
Clear
Clear
 Wind from calm
Wind: Calm
Temperature: 43°F , 6°C
Dew Point: 39°F , 4°C
Humidity: 87%
Barometer: 30.12 inHg , 1020 hPa
Clouds: Clear
Visibility: 10 miles , 16 km
2018/01/20 11:53 KSJC 201153Z AUTO 00000KT 10SM CLR 06/04 A3012 RMK AO2 SLP198 T00610039 10089 20061 50004
KNUQ - Moffett Nas/Mtn, California, USA
Distance from station: N 9mi, 14km
Updated: Sat, Jan-20-2018 5:56am CST
Clear
Clear
 Wind from calm
Wind: Calm
Temperature: 39°F , 4°C
Dew Point: 39°F , 4°C
Humidity: 100%
Barometer: 30.13 inHg , 1020.3 hPa
Clouds: Clear
Visibility: 10 miles , 16 km
2018/01/20 11:56 KNUQ 201156Z 00000KT 10SM CLR 04/04 A3013 RMK AO2 SLP204 T00440039 10072 20044 50004
 
KPAO - Palo Alto, California, USA
Distance from station: NNW 14mi, 23km
Updated: Fri, Jan-19-2018 10:47pm CST
NOT Current
Clear
Clear
 Wind from W
Wind: W 9 mph , 15 km/h
Temperature: 50°F , 10°C
Wind Chill: 46°F , 8°C
Dew Point: 43°F , 6°C
Humidity: 76%
Barometer: 30.10 inHg , 1019.3 hPa
Clouds: Clear
Visibility: 10 miles , 16 km
2018/01/20 04:47 KPAO 200447Z 28008KT 10SM SKC 10/06 A3010 RMK LAST
KRHV - San Jose/Reid, California, USA
Distance from station: ENE 12mi, 19km
Updated: Fri, Jan-19-2018 11:47pm CST
NOT Current
Few Clouds
Few Clouds
 Wind from calm
Wind: Calm
Temperature: 46°F , 8°C
Dew Point: 41°F , 5°C
Humidity: 82%
Barometer: 30.09 inHg , 1019 hPa
Clouds: Few Clouds
Visibility: 10 miles , 16 km
Cloud details: Few Clouds 3000 ft
2018/01/20 05:47 KRHV 200547Z 00000KT 10SM FEW030 08/05 A3009
 
KOAK - Oakland, California, USA
Distance from station: NNW 31mi, 50km
Updated: Sat, Jan-20-2018 5:53am CST
Clear
Clear
 Wind from calm
Wind: Calm
Temperature: 43°F , 6°C
Dew Point: 39°F , 4°C
Humidity: 87%
Barometer: 30.12 inHg , 1020 hPa
Clouds: Clear
Visibility: 10 miles , 16 km
2018/01/20 11:53 KOAK 201153Z 00000KT 10SM CLR 06/04 A3012 RMK AO2 SLP199 T00610039 10083 20056 51004
KSQL - San Carlos Airpo, California, USA
Distance from station: NW 21mi, 34km
Updated: Sat, Jan-20-2018 6:35am CST
Clear
Clear
 Wind from NW
Wind: NW 3 mph , 6 km/h
Temperature: 45°F , 7°C
Dew Point: 37°F , 3°C
Humidity: 76%
Barometer: 30.12 inHg , 1020 hPa
Clouds: Clear
Visibility: 10 miles , 16 km
2018/01/20 12:35 KSQL 201235Z AUTO 31003KT 10SM CLR 07/03 A3012 RMK AO2
 
KSFO - San Francisco, California, USA
Distance from station: NW 30mi, 49km
Updated: Sat, Jan-20-2018 5:56am CST
Clear
Clear
 Wind from WNW
Wind: WNW 10 mph , 17 km/h
Temperature: 48°F , 9°C
Wind Chill: 44°F , 7°C
Dew Point: 36°F , 2°C
Humidity: 62%
Barometer: 30.11 inHg , 1019.6 hPa
Clouds: Clear
Visibility: 10 miles , 16 km
2018/01/20 11:56 KSFO 201156Z 29009KT 10SM CLR 09/02 A3011 RMK AO2 SLP196 T00890022 10094 20067 50001
KE16 - San Martin, California, USA
Distance from station: ESE 27mi, 43km
Updated: Sat, Jan-20-2018 6:10am CST
Overcast
Overcast
 Wind from NNW
Wind: NNW 6 mph , 9 km/h
Temperature: 43°F , 6°C
Wind Chill: 39°F , 4°C
Dew Point: 39°F , 4°C
Humidity: 87%
Barometer: 30.13 inHg , 1020.3 hPa
Clouds: Overcast
Visibility: 10 miles , 16 km
Cloud details: Mostly cloudy 1800 ft
Overcast 2400 ft
2018/01/20 12:10 KE16 201210Z AUTO 33005KT 10SM BKN018 OVC024 06/04 A3013 RMK AO2
 
KWVI - Watsonville, California, USA
Distance from station: SSE 27mi, 44km
Updated: Sat, Jan-20-2018 5:53am CST
Clear
Clear
 Wind from WNW
Wind: WNW 5 mph , 7 km/h
Temperature: 37°F , 3°C
Wind Chill: 33°F , 1°C
Dew Point: 36°F , 2°C
Humidity: 93%
Barometer: 30.12 inHg , 1020 hPa
Clouds: Clear
Visibility: 10 miles , 16 km
2018/01/20 11:53 KWVI 201153Z AUTO 30004KT 10SM CLR 03/02 A3012 RMK AO2 SLP199 T00330022 10056 20028 50005
KHAF - Half Moon Bay, California, USA
Distance from station: WNW 31mi, 50km
Updated: Sat, Jan-20-2018 6:35am CST
Clear
Clear
 Wind from NNW
Wind: NNW 20 mph , 31 km/h, Gust: 29 mph , 46 km/h
Temperature: 50°F , 10°C
Wind Chill: 44°F , 7°C
Dew Point: 39°F , 4°C
Humidity: 67%
Barometer: 30.09 inHg , 1019 hPa
Clouds: Clear
Visibility: 9 miles , 14 km
2018/01/20 12:35 KHAF 201235Z AUTO 34017G25KT 9SM CLR 10/04 A3009 RMK AO2
 
KHWD - Hayward, California, USA
Distance from station: N 28mi, 44km
Updated: Sat, Jan-20-2018 5:54am CST
Clear
Clear
 Wind from calm
Wind: Calm
Temperature: 39°F , 4°C
Dew Point: 34°F , 1°C
Humidity: 81%
Barometer: 30.11 inHg , 1019.6 hPa
Clouds: Clear
Visibility: 10 miles , 16 km
2018/01/20 11:54 KHWD 201154Z 00000KT 10SM CLR 04/01 A3011 RMK AO2 SLP207 T00440011 10072 20044 50003
KLVK - Livermore, California, USA
Distance from station: NNE 31mi, 51km
Updated: Sat, Jan-20-2018 5:53am CST
Clear
Clear
 Wind from calm
Wind: Calm
Temperature: 36°F , 2°C
Dew Point: 34°F , 1°C
Humidity: 93%
Barometer: 30.10 inHg , 1019.3 hPa
Clouds: Clear
Visibility: 10 miles , 16 km
2018/01/20 11:53 KLVK 201153Z AUTO 00000KT 10SM CLR 02/01 A3010 RMK AO2 SLP194 T00220011 10072 20011 50002